createdAt,value
2023-03-28T00:02:09.467Z,4.28
2023-03-28T00:04:37.328Z,3.70
2023-03-28T00:07:05.483Z,3.47
2023-03-28T00:09:32.900Z,3.63
2023-03-28T00:11:59.753Z,3.80
2023-03-28T00:14:26.603Z,3.53
2023-03-28T00:16:53.365Z,3.22
2023-03-28T00:19:20.851Z,3.88
2023-03-28T00:21:51.077Z,3.40
2023-03-28T00:24:21.622Z,3.45
2023-03-28T00:26:54.676Z,3.33
2023-03-28T00:29:22.957Z,3.50
2023-03-28T00:31:50.317Z,3.38
2023-03-28T00:34:17.849Z,3.03
2023-03-28T00:36:44.825Z,2.97
2023-03-28T00:39:11.599Z,3.40
2023-03-28T00:41:41.571Z,3.33
2023-03-28T00:44:42.270Z,3.22
2023-03-28T00:47:20.672Z,3.22
2023-03-28T00:49:52.983Z,2.78
2023-03-28T00:52:26.625Z,3.63
2023-03-28T00:54:54.021Z,3.10
2023-03-28T00:57:20.940Z,3.83
2023-03-28T00:59:47.744Z,3.47
2023-03-28T01:04:59.503Z,3.60
2023-03-28T01:07:35.198Z,3.92
2023-03-28T01:10:04.468Z,4.13
2023-03-28T01:12:33.192Z,4.18
2023-03-28T01:15:01.757Z,3.40
2023-03-28T01:17:30.743Z,3.80
2023-03-28T01:20:04.137Z,4.43
2023-03-28T01:22:56.777Z,3.72
2023-03-28T01:25:50.041Z,4.05
2023-03-28T01:28:32.631Z,3.70
2023-03-28T01:31:16.917Z,4.05
2023-03-28T01:34:14.750Z,4.65
2023-03-28T01:36:57.119Z,3.97
2023-03-28T01:39:45.263Z,5.00
2023-03-28T01:42:32.074Z,4.22
2023-03-28T01:45:08.078Z,4.95
2023-03-28T01:47:41.332Z,5.15
2023-03-28T01:50:21.030Z,5.60
2023-03-28T01:53:22.999Z,4.95
2023-03-28T01:55:58.743Z,5.45
2023-03-28T01:58:42.347Z,5.63
2023-03-28T02:01:24.602Z,5.28
2023-03-28T02:03:58.109Z,4.93
2023-03-28T02:06:28.083Z,4.05
2023-03-28T02:08:56.468Z,5.60
2023-03-28T02:11:26.230Z,5.35
2023-03-28T02:14:01.415Z,5.18
2023-03-28T02:16:31.875Z,4.75
2023-03-28T02:18:59.858Z,5.40
2023-03-28T02:21:53.710Z,4.90
2023-03-28T02:24:20.992Z,5.65
2023-03-28T02:26:47.942Z,4.22
2023-03-28T02:29:16.699Z,4.60
2023-03-28T02:31:43.543Z,4.80
2023-03-28T02:34:11.155Z,4.07
2023-03-28T02:36:57.448Z,4.22
2023-03-28T02:39:35.426Z,3.90
2023-03-28T02:42:29.860Z,3.80
2023-03-28T02:45:16.026Z,3.22
2023-03-28T02:48:03.066Z,4.03
2023-03-28T02:50:57.503Z,3.10
2023-03-28T02:53:33.396Z,3.13
2023-03-28T02:56:21.908Z,3.10
2023-03-28T02:58:55.447Z,3.22
2023-03-28T03:01:29.325Z,3.35
2023-03-28T03:03:58.291Z,2.92
2023-03-28T03:06:25.516Z,2.63
2023-03-28T03:08:52.261Z,2.50
2023-03-28T03:11:19.109Z,3.05
2023-03-28T03:13:45.896Z,2.88
2023-03-28T03:16:12.812Z,3.30
2023-03-28T03:18:39.633Z,2.83
2023-03-28T03:21:06.735Z,2.40
2023-03-28T03:23:33.515Z,2.50
2023-03-28T03:26:00.747Z,3.50
2023-03-28T03:28:27.669Z,2.50
2023-03-28T03:30:54.361Z,2.53
2023-03-28T03:33:21.344Z,2.40
2023-03-28T03:35:48.131Z,2.40
2023-03-28T03:38:14.930Z,2.70
2023-03-28T03:40:41.764Z,2.35
2023-03-28T03:43:08.548Z,2.67
2023-03-28T03:45:35.575Z,2.95
2023-03-28T03:48:02.402Z,3.25
2023-03-28T03:50:29.367Z,2.90
2023-03-28T03:52:58.031Z,2.70
2023-03-28T03:55:26.589Z,2.20
2023-03-28T03:57:53.323Z,3.10
2023-03-28T04:00:20.275Z,3.38
2023-03-28T04:02:47.973Z,2.60
2023-03-28T04:05:14.991Z,3.28
2023-03-28T04:07:42.254Z,2.80
2023-03-28T04:10:09.459Z,3.63
2023-03-28T04:12:36.240Z,3.38
2023-03-28T04:15:03.329Z,3.40
2023-03-28T04:17:34.729Z,3.60
2023-03-28T04:20:12.291Z,3.42
2023-03-28T04:22:44.905Z,3.40
2023-03-28T04:25:14.046Z,4.28
2023-03-28T04:27:47.355Z,4.57
2023-03-28T04:30:17.654Z,4.72
2023-03-28T04:32:45.001Z,5.18
2023-03-28T04:35:12.364Z,6.25
2023-03-28T04:37:39.111Z,4.68
2023-03-28T04:40:10.806Z,4.72
2023-03-28T04:42:40.925Z,4.53
2023-03-28T04:45:08.854Z,4.35
2023-03-28T04:47:37.628Z,4.07
2023-03-28T04:50:04.862Z,4.25
2023-03-28T04:52:31.684Z,4.75
2023-03-28T04:54:58.461Z,4.50
2023-03-28T04:57:25.570Z,4.95
2023-03-28T04:59:52.343Z,4.57
2023-03-28T05:02:19.081Z,4.53
2023-03-28T05:04:45.814Z,4.45
2023-03-28T05:07:12.543Z,5.38
2023-03-28T05:09:39.269Z,5.88
2023-03-28T05:12:06.249Z,4.82
2023-03-28T05:14:33.517Z,4.72
2023-03-28T05:17:00.285Z,4.90
2023-03-28T05:19:27.091Z,5.78
2023-03-28T05:21:53.845Z,6.35
2023-03-28T05:24:20.786Z,5.85
2023-03-28T05:26:47.561Z,5.35
2023-03-28T05:29:14.302Z,7.00
2023-03-28T05:31:41.095Z,17.55
2023-03-28T05:34:07.887Z,14.50
2023-03-28T05:36:34.644Z,11.25
2023-03-28T05:39:01.425Z,8.45
2023-03-28T05:41:28.219Z,6.47
2023-03-28T05:43:54.932Z,6.38
2023-03-28T05:46:21.729Z,6.45
2023-03-28T05:48:49.392Z,6.85
2023-03-28T05:51:17.077Z,6.45
2023-03-28T05:53:43.934Z,8.38
2023-03-28T05:56:10.950Z,7.30
2023-03-28T05:58:37.676Z,7.50
2023-03-28T06:01:04.592Z,7.03
2023-03-28T06:03:32.496Z,7.32
2023-03-28T06:06:00.075Z,6.88
2023-03-28T06:08:27.406Z,8.05
2023-03-28T06:10:54.130Z,5.97
2023-03-28T06:13:21.493Z,6.65
2023-03-28T06:15:48.270Z,7.97
2023-03-28T06:18:15.046Z,6.95
2023-03-28T06:20:41.849Z,7.28
2023-03-28T06:23:08.560Z,6.97
2023-03-28T06:25:35.331Z,7.03
2023-03-28T06:28:02.202Z,7.60
2023-03-28T06:30:28.944Z,7.18
2023-03-28T06:32:55.762Z,7.32
2023-03-28T06:35:22.555Z,7.25
2023-03-28T06:37:49.330Z,7.55
2023-03-28T06:40:16.136Z,6.43
2023-03-28T06:42:43.280Z,5.70
2023-03-28T06:45:10.455Z,7.35
2023-03-28T06:47:37.214Z,6.60
2023-03-28T06:50:04.420Z,5.40
2023-03-28T06:52:31.172Z,6.45
2023-03-28T06:54:59.061Z,5.47
2023-03-28T06:57:26.097Z,4.55
2023-03-28T06:59:52.897Z,5.00
2023-03-28T07:02:19.673Z,4.65
2023-03-28T07:04:46.480Z,4.63
2023-03-28T07:07:13.259Z,4.70
2023-03-28T07:09:39.990Z,5.32
2023-03-28T07:12:07.163Z,5.53
2023-03-28T07:14:34.132Z,6.03
2023-03-28T07:17:01.222Z,5.38
2023-03-28T07:19:28.086Z,4.65
2023-03-28T07:21:54.846Z,4.50
2023-03-28T07:24:21.580Z,3.70
2023-03-28T07:26:48.279Z,5.68
2023-03-28T07:29:14.998Z,4.90
2023-03-28T07:31:43.032Z,4.63
2023-03-28T07:34:09.972Z,3.40
2023-03-28T07:36:38.403Z,3.33
2023-03-28T07:39:05.713Z,3.72
2023-03-28T07:41:32.501Z,3.17
2023-03-28T07:43:59.484Z,3.65
2023-03-28T07:46:26.398Z,3.58
2023-03-28T07:48:54.953Z,4.20
2023-03-28T07:51:21.892Z,3.95
2023-03-28T07:53:48.689Z,2.88
2023-03-28T07:56:15.496Z,3.25
2023-03-28T07:58:42.460Z,3.00
2023-03-28T08:01:12.570Z,3.05
2023-03-28T08:03:40.479Z,2.50
2023-03-28T08:06:17.033Z,2.72
2023-03-28T08:08:52.014Z,3.10
2023-03-28T08:11:18.779Z,3.75
2023-03-28T08:13:45.534Z,4.05
2023-03-28T08:16:12.397Z,3.08
2023-03-28T08:18:39.270Z,4.38
2023-03-28T08:21:06.374Z,3.15
2023-03-28T08:23:33.115Z,4.75
2023-03-28T08:26:05.109Z,3.03
2023-03-28T08:28:35.961Z,2.47
2023-03-28T08:31:10.653Z,2.60
2023-03-28T08:33:37.859Z,3.10
2023-03-28T08:36:04.804Z,3.80
2023-03-28T08:38:31.623Z,3.80
2023-03-28T08:41:18.039Z,2.53
2023-03-28T08:43:51.450Z,2.85
2023-03-28T08:46:21.856Z,3.20
2023-03-28T08:48:51.946Z,2.60
2023-03-28T08:51:21.388Z,2.60
2023-03-28T08:54:00.877Z,2.42
2023-03-28T08:56:28.632Z,2.78
2023-03-28T08:59:08.438Z,2.50
2023-03-28T09:01:35.735Z,2.33
2023-03-28T09:04:03.751Z,2.60
2023-03-28T09:06:40.077Z,2.45
2023-03-28T09:09:39.197Z,2.20
2023-03-28T09:12:17.747Z,2.58
2023-03-28T09:14:59.769Z,2.63
2023-03-28T09:17:34.860Z,2.87
2023-03-28T09:20:20.404Z,2.40
2023-03-28T09:23:20.965Z,2.17
2023-03-28T09:26:06.521Z,2.73
2023-03-28T09:28:41.505Z,3.80
2023-03-28T09:31:11.693Z,2.57
2023-03-28T09:33:42.946Z,2.00
2023-03-28T09:36:21.849Z,2.67
2023-03-28T09:38:54.841Z,2.70
2023-03-28T09:41:42.095Z,3.20
2023-03-28T09:44:14.922Z,1.70
2023-03-28T09:46:48.713Z,2.33
2023-03-28T09:49:19.223Z,2.37
2023-03-28T09:51:46.925Z,2.13
2023-03-28T09:54:14.338Z,2.17
2023-03-28T09:56:47.000Z,1.90
2023-03-28T09:59:29.189Z,2.00
2023-03-28T10:01:58.879Z,1.87
2023-03-28T10:04:28.806Z,2.47
2023-03-28T10:07:19.637Z,2.77
2023-03-28T10:10:16.622Z,2.00
2023-03-28T10:12:48.994Z,2.00
2023-03-28T10:15:41.421Z,2.70
2023-03-28T10:18:15.398Z,2.13
2023-03-28T10:20:42.297Z,2.10
2023-03-28T10:23:13.323Z,2.37
2023-03-28T10:25:43.013Z,2.30
2023-03-28T10:28:17.666Z,2.10
2023-03-28T10:30:52.122Z,2.30
2023-03-28T10:33:20.958Z,2.30
2023-03-28T10:36:09.768Z,3.17
2023-03-28T10:38:48.775Z,1.83
2023-03-28T10:41:25.984Z,1.70
2023-03-28T10:43:53.962Z,1.87
2023-03-28T10:46:30.786Z,2.20
2023-03-28T10:49:17.009Z,1.73
2023-03-28T10:51:44.284Z,1.70
2023-03-28T10:54:19.199Z,2.30
2023-03-28T10:57:16.197Z,1.80
2023-03-28T11:00:07.323Z,2.40
2023-03-28T11:02:53.670Z,1.40
2023-03-28T11:05:35.486Z,1.87
2023-03-28T11:08:02.201Z,2.37
2023-03-28T11:10:37.620Z,1.70
2023-03-28T11:13:26.610Z,1.90
2023-03-28T11:15:56.313Z,1.60
2023-03-28T11:18:56.033Z,1.70
2023-03-28T11:21:54.302Z,1.93
2023-03-28T11:24:41.662Z,2.00
2023-03-28T11:27:28.642Z,2.30
2023-03-28T11:30:19.179Z,2.00
2023-03-28T11:32:49.963Z,2.90
2023-03-28T11:35:34.597Z,2.50
2023-03-28T11:38:14.441Z,1.90
2023-03-28T11:40:56.232Z,1.83
2023-03-28T11:43:38.651Z,2.50
2023-03-28T11:46:13.009Z,1.60
2023-03-28T11:49:00.940Z,2.10
2023-03-28T11:51:45.878Z,1.70
2023-03-28T11:54:19.042Z,2.00
2023-03-28T11:57:12.708Z,2.03
2023-03-28T11:59:48.339Z,2.00
2023-03-28T12:02:30.640Z,2.10
2023-03-28T12:05:03.090Z,2.80
2023-03-28T12:07:59.595Z,1.90
2023-03-28T12:10:38.163Z,2.53
2023-03-28T12:13:44.437Z,2.33
2023-03-28T12:16:20.958Z,1.67
2023-03-28T12:18:58.666Z,1.80
2023-03-28T12:21:31.010Z,1.77
2023-03-28T12:24:16.650Z,1.97
2023-03-28T12:27:04.777Z,2.30
2023-03-28T12:29:49.624Z,2.23
2023-03-28T12:32:35.108Z,2.13
2023-03-28T12:35:28.124Z,1.43
2023-03-28T12:38:01.543Z,2.03
2023-03-28T12:40:52.040Z,3.27
2023-03-28T12:43:30.566Z,2.27
2023-03-28T12:46:02.203Z,1.80
2023-03-28T12:48:42.569Z,1.77
2023-03-28T12:51:14.930Z,1.70
2023-03-28T12:54:09.227Z,1.60
2023-03-28T12:56:36.261Z,1.83
2023-03-28T12:59:35.378Z,1.80
2023-03-28T13:02:23.330Z,1.83
2023-03-28T13:05:19.810Z,2.10
2023-03-28T13:08:06.470Z,1.83
2023-03-28T13:10:42.730Z,1.87
2023-03-28T13:13:19.584Z,1.60
2023-03-28T13:15:56.581Z,2.03
2023-03-28T13:18:29.870Z,1.43
2023-03-28T13:20:57.664Z,1.43
2023-03-28T13:23:37.173Z,1.67
2023-03-28T13:26:08.224Z,2.00
2023-03-28T13:28:46.583Z,1.90
2023-03-28T13:31:20.832Z,1.93
2023-03-28T13:33:59.726Z,2.10
2023-03-28T13:36:29.174Z,1.67
2023-03-28T13:39:08.138Z,1.80
2023-03-28T13:41:41.206Z,2.00
2023-03-28T13:44:18.699Z,1.67
2023-03-28T13:46:48.728Z,1.67
2023-03-28T13:49:21.521Z,2.30
2023-03-28T13:51:59.005Z,1.93
2023-03-28T13:54:28.357Z,2.00
2023-03-28T13:57:05.309Z,1.87
2023-03-28T13:59:36.127Z,2.00
2023-03-28T14:02:15.739Z,2.10
2023-03-28T14:04:51.897Z,2.10
2023-03-28T14:07:27.296Z,2.00
2023-03-28T14:09:56.175Z,1.93
2023-03-28T14:12:25.848Z,1.80
2023-03-28T14:14:58.903Z,1.97
2023-03-28T14:17:29.206Z,2.10
2023-03-28T14:20:01.694Z,2.50
2023-03-28T14:22:30.464Z,2.33
2023-03-28T14:25:05.080Z,2.07
2023-03-28T14:27:48.039Z,2.23
2023-03-28T14:30:18.165Z,2.13
2023-03-28T14:33:07.202Z,1.83
2023-03-28T14:35:35.815Z,1.90
2023-03-28T14:38:05.598Z,1.60
2023-03-28T14:40:39.618Z,1.93
2023-03-28T14:43:07.555Z,1.83
2023-03-28T14:45:37.704Z,2.83
2023-03-28T14:48:08.721Z,1.80
2023-03-28T14:50:38.573Z,1.30
2023-03-28T14:53:09.419Z,1.90
2023-03-28T14:55:37.519Z,2.00
2023-03-28T14:58:06.151Z,2.00
2023-03-28T15:00:42.774Z,1.80
2023-03-28T15:03:16.612Z,1.93
2023-03-28T15:05:49.795Z,1.70
2023-03-28T15:08:37.863Z,1.73
2023-03-28T15:11:09.339Z,1.70
2023-03-28T15:13:41.686Z,2.30
2023-03-28T15:16:09.148Z,2.10
2023-03-28T15:18:44.352Z,1.87
2023-03-28T15:21:11.702Z,1.70
2023-03-28T15:23:51.136Z,1.60
2023-03-28T15:26:30.021Z,1.60
2023-03-28T15:28:58.117Z,1.70
2023-03-28T15:31:26.205Z,2.20
2023-03-28T15:33:54.428Z,1.77
2023-03-28T15:36:29.912Z,2.10
2023-03-28T15:39:21.083Z,1.87
2023-03-28T15:41:49.059Z,2.00
2023-03-28T15:44:27.110Z,2.30
2023-03-28T15:47:06.656Z,2.10
2023-03-28T15:49:37.943Z,1.77
2023-03-28T15:52:24.943Z,1.70
2023-03-28T15:54:54.025Z,2.10
2023-03-28T15:57:24.621Z,2.17
2023-03-28T15:59:51.735Z,2.20
2023-03-28T16:02:20.801Z,2.97
2023-03-28T16:05:09.251Z,2.83
2023-03-28T16:07:48.531Z,2.50
2023-03-28T16:10:21.257Z,2.93
2023-03-28T16:12:51.158Z,2.53
2023-03-28T16:15:18.767Z,2.57
2023-03-28T16:17:47.231Z,3.13
2023-03-28T16:20:20.911Z,2.53
2023-03-28T16:22:48.593Z,3.20
2023-03-28T16:25:15.551Z,2.60
2023-03-28T16:27:42.869Z,3.20
2023-03-28T16:30:38.013Z,2.93
2023-03-28T16:33:06.345Z,2.87
2023-03-28T16:35:34.114Z,2.73
2023-03-28T16:38:01.945Z,2.40
2023-03-28T16:40:29.425Z,2.80
2023-03-28T16:42:56.532Z,3.13
2023-03-28T16:45:23.714Z,2.53
2023-03-28T16:47:50.854Z,3.20
2023-03-28T16:50:17.674Z,3.00
2023-03-28T16:52:44.416Z,4.40
2023-03-28T16:55:16.821Z,2.90
2023-03-28T16:57:43.740Z,2.70
2023-03-28T17:00:16.069Z,3.07
2023-03-28T17:02:43.142Z,2.90
2023-03-28T17:05:10.483Z,2.40
2023-03-28T17:07:37.215Z,2.90
2023-03-28T17:10:04.443Z,2.50
2023-03-28T17:12:31.851Z,2.57
2023-03-28T17:14:58.622Z,2.40
2023-03-28T17:17:25.617Z,3.00
2023-03-28T17:19:52.363Z,3.00
2023-03-28T17:22:19.165Z,3.47
2023-03-28T17:24:46.900Z,3.70
2023-03-28T17:27:14.413Z,3.00
2023-03-28T17:29:41.218Z,3.20
2023-03-28T17:32:08.234Z,2.80
2023-03-28T17:34:36.581Z,2.80
2023-03-28T17:37:04.235Z,2.70
2023-03-28T17:39:31.366Z,2.60
2023-03-28T17:41:58.188Z,2.50
2023-03-28T17:44:25.020Z,2.47
2023-03-28T17:46:52.068Z,2.80
2023-03-28T17:49:19.706Z,2.50
2023-03-28T17:51:46.510Z,2.90
2023-03-28T17:54:13.247Z,3.40
2023-03-28T17:56:40.184Z,3.00
2023-03-28T17:59:07.389Z,2.97
2023-03-28T18:01:34.122Z,3.30
2023-03-28T18:04:01.186Z,3.27
2023-03-28T18:06:28.118Z,2.93
2023-03-28T18:08:54.898Z,2.83
2023-03-28T18:11:22.957Z,4.33
2023-03-28T18:13:52.659Z,3.20
2023-03-28T18:16:19.525Z,3.07
2023-03-28T18:18:46.571Z,3.70
2023-03-28T18:21:13.615Z,3.00
2023-03-28T18:23:40.949Z,3.20
2023-03-28T18:26:08.135Z,3.30
2023-03-28T18:28:36.685Z,5.53
2023-03-28T18:31:14.630Z,6.17
2023-03-28T18:33:42.963Z,7.13
2023-03-28T18:36:11.197Z,7.13
2023-03-28T18:38:43.303Z,6.40
2023-03-28T18:41:12.585Z,7.22
2023-03-28T18:43:41.438Z,6.23
2023-03-28T18:46:09.818Z,8.20
2023-03-28T18:48:36.662Z,9.97
2023-03-28T18:51:06.223Z,8.80
2023-03-28T18:53:33.855Z,7.07
2023-03-28T18:56:01.377Z,5.37
2023-03-28T18:58:28.442Z,5.00
2023-03-28T19:01:00.002Z,4.70
2023-03-28T19:03:28.330Z,4.43
2023-03-28T19:05:56.395Z,3.70
2023-03-28T19:08:26.169Z,3.50
2023-03-28T19:10:58.034Z,4.20
2023-03-28T19:13:25.637Z,4.43
2023-03-28T19:16:06.994Z,4.10
2023-03-28T19:18:37.997Z,3.67
2023-03-28T19:21:05.162Z,3.50
2023-03-28T19:23:32.101Z,3.17
2023-03-28T19:25:58.832Z,3.10
2023-03-28T19:28:25.642Z,3.13
2023-03-28T19:31:03.909Z,2.60
2023-03-28T19:33:30.769Z,3.03
2023-03-28T19:35:57.716Z,3.35
2023-03-28T19:38:26.317Z,3.75
2023-03-28T19:41:15.916Z,3.38
2023-03-28T19:43:43.318Z,3.80
2023-03-28T19:46:18.967Z,3.13
2023-03-28T19:48:46.034Z,3.28
2023-03-28T19:51:14.205Z,3.00
2023-03-28T19:53:41.865Z,3.90
2023-03-28T19:56:11.331Z,4.72
2023-03-28T19:58:38.082Z,4.50
2023-03-28T20:01:04.960Z,4.65
2023-03-28T20:03:31.867Z,7.18
2023-03-28T20:06:04.695Z,3.83
2023-03-28T20:08:31.576Z,3.83
2023-03-28T20:10:58.495Z,4.57
2023-03-28T20:13:25.732Z,4.05
2023-03-28T20:15:52.796Z,4.00
2023-03-28T20:18:20.704Z,3.95
2023-03-28T20:20:59.792Z,3.45
2023-03-28T20:23:28.970Z,3.90
2023-03-28T20:25:57.346Z,3.70
2023-03-28T20:28:24.835Z,3.90
2023-03-28T20:30:53.334Z,3.25
2023-03-28T20:33:20.689Z,3.30
2023-03-28T20:35:55.060Z,3.30
2023-03-28T20:38:21.980Z,4.50
2023-03-28T20:40:49.558Z,3.95
2023-03-28T20:43:26.538Z,4.63
2023-03-28T20:45:55.076Z,4.43
2023-03-28T20:48:35.075Z,5.50
2023-03-28T20:51:05.913Z,4.85
2023-03-28T20:53:34.776Z,5.50
2023-03-28T20:56:05.383Z,4.45
2023-03-28T20:58:33.232Z,4.85
2023-03-28T21:01:01.843Z,3.85
2023-03-28T21:03:39.410Z,4.15
2023-03-28T21:06:08.901Z,4.22
2023-03-28T21:08:38.563Z,4.22
2023-03-28T21:11:05.537Z,3.70
2023-03-28T21:13:32.268Z,4.43
2023-03-28T21:15:58.975Z,4.15
2023-03-28T21:18:26.149Z,4.10
2023-03-28T21:20:52.871Z,3.83
2023-03-28T21:23:19.552Z,4.70
2023-03-28T21:25:47.922Z,3.65
2023-03-28T21:28:14.771Z,3.50
2023-03-28T21:30:41.598Z,4.00
2023-03-28T21:33:08.467Z,3.45
2023-03-28T21:35:38.126Z,3.70
2023-03-28T21:38:04.939Z,2.92
2023-03-28T21:40:31.805Z,3.45
2023-03-28T21:42:58.553Z,2.72
2023-03-28T21:45:25.373Z,3.30
2023-03-28T21:47:52.177Z,3.70
2023-03-28T21:50:18.964Z,4.28
2023-03-28T21:52:45.794Z,3.95
2023-03-28T21:55:12.548Z,3.80
2023-03-28T21:57:39.371Z,5.28
2023-03-28T22:00:14.824Z,4.65
2023-03-28T22:02:43.094Z,4.45
2023-03-28T22:05:21.977Z,3.67
2023-03-28T22:07:53.385Z,5.47
2023-03-28T22:10:21.317Z,5.05
2023-03-28T22:12:48.124Z,6.00
2023-03-28T22:15:15.069Z,6.22
2023-03-28T22:17:43.013Z,6.00
2023-03-28T22:20:12.165Z,5.30
2023-03-28T22:22:42.485Z,4.88
2023-03-28T22:25:10.927Z,4.40
2023-03-28T22:27:38.699Z,4.60
2023-03-28T22:30:09.605Z,3.55
2023-03-28T22:32:38.004Z,4.47
2023-03-28T22:35:05.906Z,4.55
2023-03-28T22:37:33.256Z,4.75
2023-03-28T22:40:00.436Z,4.80
2023-03-28T22:42:27.600Z,4.82
2023-03-28T22:44:54.388Z,4.35
2023-03-28T22:47:21.226Z,4.82
2023-03-28T22:49:47.990Z,4.32
2023-03-28T22:52:14.775Z,4.75
2023-03-28T22:54:42.685Z,6.90
2023-03-28T22:57:09.673Z,6.43
2023-03-28T22:59:36.567Z,9.00
2023-03-28T23:02:03.888Z,8.80
2023-03-28T23:04:33.040Z,8.35
2023-03-28T23:06:59.810Z,8.00
2023-03-28T23:09:27.939Z,7.50
2023-03-28T23:11:55.096Z,6.50
2023-03-28T23:14:22.251Z,6.30
2023-03-28T23:16:50.097Z,5.70
2023-03-28T23:19:16.866Z,4.55
2023-03-28T23:21:43.966Z,3.92
2023-03-28T23:24:11.834Z,6.25
2023-03-28T23:26:38.555Z,4.70
2023-03-28T23:29:05.338Z,5.00
2023-03-28T23:31:32.096Z,4.22
2023-03-28T23:33:58.998Z,5.40
2023-03-28T23:36:25.933Z,4.78
2023-03-28T23:38:53.073Z,3.88
2023-03-28T23:41:19.891Z,2.70
2023-03-28T23:43:46.707Z,2.55
2023-03-28T23:46:14.235Z,2.45
2023-03-28T23:48:41.508Z,2.10
2023-03-28T23:51:09.022Z,1.98
2023-03-28T23:53:36.302Z,2.55
2023-03-28T23:56:03.617Z,2.70
2023-03-28T23:58:30.319Z,2.08
